createdAt,value
2019-02-28T00:00:40.675Z,42.29
2019-02-28T00:03:08.436Z,42.27
2019-02-28T00:05:37.950Z,42.30
2019-02-28T00:08:06.963Z,42.27
2019-02-28T00:10:35.327Z,42.25
2019-02-28T00:13:03.757Z,42.35
2019-02-28T00:15:32.130Z,42.25
2019-02-28T00:18:00.492Z,42.40
2019-02-28T00:20:29.190Z,42.24
2019-02-28T00:22:58.991Z,42.36
2019-02-28T00:25:27.364Z,42.21
2019-02-28T00:27:55.722Z,42.30
2019-02-28T00:30:24.095Z,42.33
2019-02-28T00:32:52.458Z,42.27
2019-02-28T00:35:20.830Z,42.29
2019-02-28T00:37:49.194Z,42.28
2019-02-28T00:40:17.677Z,42.30
2019-02-28T00:42:48.124Z,42.16
2019-02-28T00:45:16.586Z,42.16
2019-02-28T00:47:47.525Z,42.24
2019-02-28T00:50:15.048Z,42.41
2019-02-28T00:52:43.455Z,42.42
2019-02-28T00:55:15.638Z,42.37
2019-02-28T00:57:44.138Z,42.39
2019-02-28T01:00:18.129Z,42.50
2019-02-28T01:02:52.040Z,42.54
2019-02-28T01:05:16.620Z,42.47
2019-02-28T01:07:48.123Z,42.57
2019-02-28T01:10:15.328Z,42.41
2019-02-28T01:12:43.695Z,42.54
2019-02-28T01:15:18.359Z,42.63
2019-02-28T01:17:46.722Z,42.37
2019-02-28T01:20:16.469Z,42.65
2019-02-28T01:22:45.107Z,42.56
2019-02-28T01:25:19.731Z,42.60
2019-02-28T01:27:48.090Z,42.54
2019-02-28T01:30:16.832Z,42.31
2019-02-28T01:32:49.732Z,42.52
2019-02-28T01:35:15.379Z,42.59
2019-02-28T01:37:43.759Z,42.47
2019-02-28T01:40:15.225Z,42.70
2019-02-28T01:42:43.591Z,42.63
2019-02-28T01:45:13.106Z,42.45
2019-02-28T01:47:41.575Z,42.71
2019-02-28T01:50:11.587Z,42.64
2019-02-28T01:52:44.550Z,42.85
2019-02-28T01:55:11.187Z,42.48
2019-02-28T01:57:43.756Z,42.73
2019-02-28T02:00:12.718Z,42.65
2019-02-28T02:02:41.160Z,42.76
2019-02-28T02:05:09.927Z,42.72
2019-02-28T02:07:38.305Z,42.72
2019-02-28T02:10:14.079Z,42.80
2019-02-28T02:12:42.442Z,42.68
2019-02-28T02:15:11.854Z,42.75
2019-02-28T02:17:40.230Z,42.81
2019-02-28T02:20:11.129Z,42.65
2019-02-28T02:22:40.722Z,42.86
2019-02-28T02:25:09.968Z,42.73
2019-02-28T02:27:38.342Z,42.87
2019-02-28T02:30:15.127Z,42.75
2019-02-28T02:32:43.408Z,42.93
2019-02-28T02:35:11.786Z,42.93
2019-02-28T02:37:40.185Z,42.59
2019-02-28T02:40:11.216Z,42.92
2019-02-28T02:42:47.470Z,42.65
2019-02-28T02:45:11.351Z,42.65
2019-02-28T02:47:39.733Z,42.92
2019-02-28T02:50:15.279Z,42.95
2019-02-28T02:52:43.829Z,42.80
2019-02-28T02:55:12.977Z,42.79
2019-02-28T02:57:41.436Z,42.81
2019-02-28T03:00:17.699Z,42.90
2019-02-28T03:02:46.274Z,42.73
2019-02-28T03:05:15.016Z,42.87
2019-02-28T03:07:43.566Z,42.91
2019-02-28T03:10:17.254Z,42.94
2019-02-28T03:12:44.588Z,42.95
2019-02-28T03:15:15.299Z,42.98
2019-02-28T03:17:47.326Z,42.86
2019-02-28T03:20:14.584Z,43.04
2019-02-28T03:22:42.962Z,42.92
2019-02-28T03:25:16.297Z,43.06
2019-02-28T03:27:44.684Z,43.09
2019-02-28T03:30:27.895Z,42.99
2019-02-28T03:32:50.412Z,42.99
2019-02-28T03:35:18.787Z,42.98
2019-02-28T03:37:47.198Z,43.12
2019-02-28T03:40:15.620Z,42.80
2019-02-28T03:42:44.010Z,43.09
2019-02-28T03:45:16.201Z,43.01
2019-02-28T03:47:44.675Z,42.72
2019-02-28T03:50:13.585Z,43.00
2019-02-28T03:52:44.196Z,43.00
2019-02-28T03:55:13.690Z,43.17
2019-02-28T03:57:42.187Z,43.24
2019-02-28T04:00:23.903Z,43.10
2019-02-28T04:02:57.032Z,43.17
2019-02-28T04:05:26.905Z,43.22
2019-02-28T04:07:54.787Z,43.12
2019-02-28T04:10:22.845Z,42.91
2019-02-28T04:12:51.395Z,43.17
2019-02-28T04:15:20.296Z,43.07
2019-02-28T04:17:48.672Z,43.18
2019-02-28T04:20:17.055Z,43.08
2019-02-28T04:22:45.507Z,43.15
2019-02-28T04:25:13.981Z,43.16
2019-02-28T04:27:42.388Z,43.13
2019-02-28T04:30:16.996Z,43.12
2019-02-28T04:32:45.379Z,43.12
2019-02-28T04:35:13.896Z,43.39
2019-02-28T04:37:46.821Z,43.70
2019-02-28T04:40:13.365Z,43.78
2019-02-28T04:42:41.741Z,43.75
2019-02-28T04:45:12.172Z,43.87
2019-02-28T04:47:41.570Z,44.01
2019-02-28T04:50:11.525Z,44.01
2019-02-28T04:52:39.937Z,43.86
2019-02-28T04:55:09.493Z,44.14
2019-02-28T04:57:37.868Z,44.03
2019-02-28T05:00:09.450Z,44.15
2019-02-28T05:02:37.882Z,44.42
2019-02-28T05:05:09.341Z,44.32
2019-02-28T05:07:36.426Z,44.28
2019-02-28T05:10:06.957Z,44.17
2019-02-28T05:12:36.238Z,44.15
2019-02-28T05:15:08.189Z,44.52
2019-02-28T05:17:36.564Z,44.44
2019-02-28T05:20:10.715Z,44.42
2019-02-28T05:22:37.584Z,44.58
2019-02-28T05:25:07.504Z,44.35
2019-02-28T05:27:36.425Z,44.35
2019-02-28T05:30:07.020Z,44.44
2019-02-28T05:32:36.327Z,44.48
2019-02-28T05:35:05.699Z,44.68
2019-02-28T05:37:34.070Z,44.47
2019-02-28T05:40:05.971Z,44.58
2019-02-28T05:42:32.789Z,44.07
2019-02-28T05:45:01.215Z,44.30
2019-02-28T05:47:32.450Z,44.28
2019-02-28T05:49:59.823Z,44.35
2019-02-28T05:52:30.497Z,44.49
2019-02-28T05:54:58.353Z,44.74
2019-02-28T05:57:26.682Z,44.76
2019-02-28T05:59:55.065Z,44.58
2019-02-28T06:02:25.618Z,44.37
2019-02-28T06:04:54.686Z,44.37
2019-02-28T06:07:25.946Z,44.37
2019-02-28T06:09:53.174Z,44.70
2019-02-28T06:12:21.563Z,44.73
2019-02-28T06:14:49.970Z,44.71
2019-02-28T06:17:20.924Z,44.58
2019-02-28T06:19:48.429Z,44.54
2019-02-28T06:22:16.803Z,44.70
2019-02-28T06:24:45.953Z,44.68
2019-02-28T06:27:14.442Z,44.74
2019-02-28T06:29:42.814Z,44.75
2019-02-28T06:32:13.522Z,44.71
2019-02-28T06:34:42.204Z,44.69
2019-02-28T06:37:11.349Z,44.89
2019-02-28T06:39:39.722Z,44.83
2019-02-28T06:42:08.163Z,44.85
2019-02-28T06:44:36.626Z,44.48
2019-02-28T06:47:05.011Z,44.01
2019-02-28T06:49:33.386Z,44.74
2019-02-28T06:52:01.778Z,44.95
2019-02-28T06:54:30.384Z,44.85
2019-02-28T06:56:59.030Z,45.09
2019-02-28T06:59:27.673Z,44.94
2019-02-28T07:01:57.590Z,44.79
2019-02-28T07:04:26.472Z,45.17
2019-02-28T07:06:55.366Z,45.07
2019-02-28T07:09:23.738Z,45.18
2019-02-28T07:11:54.940Z,45.16
2019-02-28T07:14:22.214Z,45.16
2019-02-28T07:16:50.594Z,45.24
2019-02-28T07:19:18.964Z,45.19
2019-02-28T07:21:47.348Z,45.16
2019-02-28T07:24:15.823Z,45.21
2019-02-28T07:26:44.205Z,45.12
2019-02-28T07:29:12.681Z,45.03
2019-02-28T07:31:41.082Z,44.99
2019-02-28T07:34:09.464Z,44.90
2019-02-28T07:36:37.857Z,44.89
2019-02-28T07:39:06.466Z,44.71
2019-02-28T07:41:34.860Z,44.79
2019-02-28T07:44:03.228Z,44.66
2019-02-28T07:46:31.615Z,45.01
2019-02-28T07:49:00.917Z,44.02
2019-02-28T07:51:29.951Z,43.73
2019-02-28T07:53:58.332Z,43.46
2019-02-28T07:56:26.758Z,42.75
2019-02-28T07:58:55.812Z,42.40
2019-02-28T08:01:24.567Z,42.37
2019-02-28T08:03:54.385Z,42.39
2019-02-28T08:06:22.762Z,42.50
2019-02-28T08:08:51.148Z,42.61
2019-02-28T08:11:20.616Z,42.72
2019-02-28T08:13:49.187Z,42.82
2019-02-28T08:16:17.569Z,42.72
2019-02-28T08:18:45.985Z,42.74
2019-02-28T08:21:14.456Z,42.73
2019-02-28T08:23:42.840Z,42.69
2019-02-28T08:26:11.250Z,42.78
2019-02-28T08:28:40.240Z,42.78
2019-02-28T08:31:08.692Z,42.76
2019-02-28T08:33:37.078Z,42.82
2019-02-28T08:36:11.530Z,42.82
2019-02-28T08:38:35.646Z,42.78
2019-02-28T08:41:06.383Z,42.78
2019-02-28T08:43:34.119Z,42.81
2019-02-28T08:46:02.893Z,42.81
2019-02-28T08:48:32.518Z,42.87
2019-02-28T08:51:01.421Z,42.86
2019-02-28T08:53:29.795Z,42.85
2019-02-28T08:55:58.169Z,42.84
2019-02-28T08:58:26.559Z,42.87
2019-02-28T09:00:55.053Z,42.88
2019-02-28T09:03:24.273Z,43.03
2019-02-28T09:05:53.562Z,43.19
2019-02-28T09:08:22.450Z,43.23
2019-02-28T09:10:52.044Z,43.32
2019-02-28T09:13:20.451Z,43.38
2019-02-28T09:15:50.633Z,43.43
2019-02-28T09:18:19.253Z,43.33
2019-02-28T09:20:47.628Z,42.81
2019-02-28T09:23:16.015Z,42.13
2019-02-28T09:25:44.400Z,42.38
2019-02-28T09:28:13.052Z,41.83
2019-02-28T09:30:43.879Z,41.56
2019-02-28T09:33:12.292Z,41.41
2019-02-28T09:35:45.232Z,41.44
2019-02-28T09:38:13.346Z,41.53
2019-02-28T09:40:41.343Z,41.55
2019-02-28T09:43:09.747Z,41.60
2019-02-28T09:45:39.866Z,41.57
2019-02-28T09:48:08.235Z,41.66
2019-02-28T09:50:36.623Z,41.72
2019-02-28T09:53:05.010Z,42.16
2019-02-28T09:55:35.309Z,42.13
2019-02-28T09:58:03.507Z,42.00
2019-02-28T10:00:32.030Z,42.18
2019-02-28T10:03:00.403Z,42.08
2019-02-28T10:05:28.782Z,41.87
2019-02-28T10:08:01.595Z,41.70
2019-02-28T10:10:32.204Z,41.52
2019-02-28T10:13:00.641Z,41.48
2019-02-28T10:15:29.031Z,41.40
2019-02-28T10:18:00.602Z,41.38
2019-02-28T10:20:29.074Z,41.22
2019-02-28T10:22:57.515Z,41.20
2019-02-28T10:25:26.053Z,41.22
2019-02-28T10:27:54.888Z,41.23
2019-02-28T10:30:31.629Z,41.19
2019-02-28T10:32:55.570Z,41.11
2019-02-28T10:35:23.961Z,41.18
2019-02-28T10:37:57.093Z,41.16
2019-02-28T10:40:27.180Z,41.05
2019-02-28T10:42:55.564Z,41.03
2019-02-28T10:45:24.962Z,41.01
2019-02-28T10:47:53.332Z,41.03
2019-02-28T10:50:31.984Z,40.93
2019-02-28T10:52:57.428Z,40.92
2019-02-28T10:55:25.787Z,40.92
2019-02-28T10:57:54.223Z,40.94
2019-02-28T11:00:29.364Z,41.00
2019-02-28T11:02:58.020Z,40.95
2019-02-28T11:05:28.985Z,40.96
2019-02-28T11:07:57.637Z,40.95
2019-02-28T11:10:40.451Z,40.98
2019-02-28T11:13:11.873Z,40.95
2019-02-28T11:15:40.394Z,40.98
2019-02-28T11:18:09.937Z,40.99
2019-02-28T11:20:39.203Z,41.03
2019-02-28T11:23:07.886Z,41.03
2019-02-28T11:25:36.508Z,41.05
2019-02-28T11:28:05.116Z,41.01
2019-02-28T11:30:36.017Z,41.04
2019-02-28T11:33:04.799Z,41.02
2019-02-28T11:35:33.323Z,41.04
2019-02-28T11:38:01.769Z,40.99
2019-02-28T11:40:30.156Z,40.94
2019-02-28T11:43:02.860Z,40.92
2019-02-28T11:45:32.784Z,40.93
2019-02-28T11:48:03.407Z,40.94
2019-02-28T11:50:32.349Z,40.94
2019-02-28T11:53:04.890Z,40.96
2019-02-28T11:55:30.968Z,40.98
2019-02-28T11:57:59.335Z,40.97
2019-02-28T12:00:35.710Z,40.93
2019-02-28T12:03:05.462Z,40.92
2019-02-28T12:05:33.726Z,40.86
2019-02-28T12:08:02.116Z,40.80
2019-02-28T12:10:30.666Z,40.80
2019-02-28T12:12:59.049Z,40.73
2019-02-28T12:15:38.178Z,40.64
2019-02-28T12:18:06.958Z,40.57
2019-02-28T12:20:35.330Z,40.56
2019-02-28T12:23:03.786Z,40.56
2019-02-28T12:25:32.348Z,40.55
2019-02-28T12:28:02.767Z,40.57
2019-02-28T12:30:34.824Z,40.62
2019-02-28T12:33:03.218Z,40.53
2019-02-28T12:35:36.277Z,40.54
2019-02-28T12:38:01.780Z,40.47
2019-02-28T12:40:35.902Z,40.48
2019-02-28T12:43:08.651Z,40.42
2019-02-28T12:45:42.156Z,40.43
2019-02-28T12:48:13.713Z,40.40
2019-02-28T12:50:40.716Z,40.42
2019-02-28T12:53:09.098Z,40.37
2019-02-28T12:55:39.076Z,40.38
2019-02-28T12:58:07.626Z,40.45
2019-02-28T13:00:44.503Z,40.50
2019-02-28T13:03:19.264Z,40.51
2019-02-28T13:05:43.069Z,40.46
2019-02-28T13:08:11.548Z,40.45
2019-02-28T13:10:42.010Z,40.46
2019-02-28T13:13:10.203Z,40.38
2019-02-28T13:15:38.715Z,40.42
2019-02-28T13:18:09.294Z,40.45
2019-02-28T13:20:38.804Z,40.42
2019-02-28T13:23:07.260Z,40.34
2019-02-28T13:25:35.651Z,40.43
2019-02-28T13:28:04.884Z,40.40
2019-02-28T13:30:33.311Z,40.39
2019-02-28T13:33:01.715Z,40.32
2019-02-28T13:35:35.571Z,40.38
2019-02-28T13:38:04.191Z,40.33
2019-02-28T13:40:32.579Z,40.34
2019-02-28T13:43:01.842Z,40.43
2019-02-28T13:45:30.477Z,40.47
2019-02-28T13:47:59.015Z,40.57
2019-02-28T13:50:35.377Z,40.52
2019-02-28T13:53:17.018Z,40.58
2019-02-28T13:55:35.154Z,40.72
2019-02-28T13:58:03.606Z,40.85
2019-02-28T14:00:33.656Z,40.99
2019-02-28T14:03:13.072Z,41.18
2019-02-28T14:05:41.882Z,41.11
2019-02-28T14:08:12.023Z,41.24
2019-02-28T14:10:40.451Z,41.23
2019-02-28T14:13:09.159Z,41.25
2019-02-28T14:15:40.127Z,41.35
2019-02-28T14:18:10.929Z,41.58
2019-02-28T14:20:38.933Z,41.27
2019-02-28T14:23:07.363Z,41.36
2019-02-28T14:25:36.360Z,41.47
2019-02-28T14:28:06.104Z,41.40
2019-02-28T14:30:34.485Z,41.50
2019-02-28T14:33:02.960Z,41.51
2019-02-28T14:35:34.407Z,41.63
2019-02-28T14:38:01.441Z,41.56
2019-02-28T14:40:29.832Z,41.57
2019-02-28T14:42:58.207Z,41.59
2019-02-28T14:45:32.220Z,41.62
2019-02-28T14:48:00.791Z,41.69
2019-02-28T14:50:30.699Z,41.78
2019-02-28T14:52:59.707Z,42.00
2019-02-28T14:55:29.367Z,42.23
2019-02-28T14:57:58.555Z,42.24
2019-02-28T15:00:35.419Z,42.38
2019-02-28T15:03:04.275Z,42.44
2019-02-28T15:05:38.067Z,42.27
2019-02-28T15:08:06.879Z,42.40
2019-02-28T15:10:35.416Z,42.33
2019-02-28T15:13:05.016Z,42.33
2019-02-28T15:15:36.239Z,42.37
2019-02-28T15:18:05.377Z,42.37
2019-02-28T15:20:33.854Z,42.37
2019-02-28T15:23:02.233Z,42.40
2019-02-28T15:25:31.258Z,42.49
2019-02-28T15:27:59.946Z,42.51
2019-02-28T15:30:41.832Z,42.44
2019-02-28T15:33:10.207Z,42.50
2019-02-28T15:35:38.606Z,42.58
2019-02-28T15:38:09.100Z,42.79
2019-02-28T15:40:44.601Z,42.68
2019-02-28T15:43:16.871Z,42.80
2019-02-28T15:45:43.185Z,42.65
2019-02-28T15:48:11.654Z,43.26
2019-02-28T15:50:40.358Z,43.76
2019-02-28T15:53:11.414Z,44.22
2019-02-28T15:55:39.105Z,44.63
2019-02-28T15:58:07.632Z,45.06
2019-02-28T16:00:37.008Z,45.88
2019-02-28T16:03:06.037Z,45.50
2019-02-28T16:05:34.570Z,45.12
2019-02-28T16:08:09.041Z,45.44
2019-02-28T16:10:36.305Z,45.24
2019-02-28T16:13:06.632Z,45.15
2019-02-28T16:15:35.205Z,45.02
2019-02-28T16:18:03.663Z,45.10
2019-02-28T16:20:32.901Z,45.32
2019-02-28T16:23:01.364Z,45.23
2019-02-28T16:25:36.376Z,45.14
2019-02-28T16:28:08.987Z,44.92
2019-02-28T16:30:38.570Z,44.80
2019-02-28T16:33:07.922Z,44.65
2019-02-28T16:35:36.291Z,44.54
2019-02-28T16:38:06.495Z,44.41
2019-02-28T16:40:34.851Z,44.08
2019-02-28T16:43:03.427Z,43.94
2019-02-28T16:45:33.424Z,43.82
2019-02-28T16:48:03.453Z,43.82
2019-02-28T16:50:31.828Z,43.81
2019-02-28T16:53:00.742Z,43.70
2019-02-28T16:55:30.881Z,43.81
2019-02-28T16:57:59.236Z,43.95
2019-02-28T17:00:27.987Z,43.79
2019-02-28T17:02:56.381Z,43.83
2019-02-28T17:05:27.872Z,43.82
2019-02-28T17:07:54.874Z,43.76
2019-02-28T17:10:25.059Z,43.75
2019-02-28T17:13:11.181Z,43.77
2019-02-28T17:15:55.420Z,43.79
2019-02-28T17:18:27.223Z,43.80
2019-02-28T17:20:55.602Z,43.73
2019-02-28T17:23:23.996Z,43.83
2019-02-28T17:25:53.538Z,43.91
2019-02-28T17:28:30.146Z,43.89
2019-02-28T17:31:15.727Z,43.90
2019-02-28T17:33:46.857Z,43.79
2019-02-28T17:36:14.739Z,43.83
2019-02-28T17:38:43.123Z,43.77
2019-02-28T17:41:11.508Z,43.78
2019-02-28T17:43:40.086Z,43.86
2019-02-28T17:46:16.435Z,43.96
2019-02-28T17:48:52.563Z,44.02
2019-02-28T17:51:23.652Z,43.85
2019-02-28T17:53:55.111Z,43.86
2019-02-28T17:56:44.427Z,43.84
2019-02-28T17:59:16.876Z,43.93
2019-02-28T18:02:20.650Z,44.05
2019-02-28T18:05:06.851Z,44.23
2019-02-28T18:07:53.120Z,44.47
2019-02-28T18:10:47.337Z,44.62
2019-02-28T18:13:30.763Z,44.93
2019-02-28T18:16:13.868Z,44.94
2019-02-28T18:18:57.545Z,45.24
2019-02-28T18:21:31.890Z,45.29
2019-02-28T18:24:24.239Z,45.72
2019-02-28T18:27:16.637Z,43.44
2019-02-28T18:30:22.980Z,43.00
2019-02-28T18:32:51.371Z,43.68
2019-02-28T18:35:19.830Z,42.27
2019-02-28T18:37:48.243Z,42.53
2019-02-28T18:40:16.637Z,41.96
2019-02-28T18:42:45.089Z,42.53
2019-02-28T18:45:15.662Z,43.92
2019-02-28T18:47:43.688Z,41.40
2019-02-28T18:50:12.395Z,40.67
2019-02-28T18:52:40.770Z,40.99
2019-02-28T18:55:09.235Z,40.99
2019-02-28T18:57:37.619Z,44.63
2019-02-28T19:00:10.633Z,45.49
2019-02-28T19:02:39.083Z,45.44
2019-02-28T19:05:07.538Z,45.74
2019-02-28T19:07:35.926Z,46.40
2019-02-28T19:10:06.295Z,47.08
2019-02-28T19:12:34.646Z,47.38
2019-02-28T19:15:03.033Z,47.46
2019-02-28T19:17:31.929Z,47.14
2019-02-28T19:20:00.326Z,46.93
2019-02-28T19:22:28.783Z,46.77
2019-02-28T19:24:57.376Z,46.72
2019-02-28T19:27:25.755Z,46.59
2019-02-28T19:29:54.135Z,46.62
2019-02-28T19:32:22.524Z,46.69
2019-02-28T19:34:50.901Z,46.52
2019-02-28T19:37:19.366Z,46.50
2019-02-28T19:39:47.746Z,46.42
2019-02-28T19:42:16.135Z,46.37
2019-02-28T19:44:44.608Z,46.39
2019-02-28T19:47:13.000Z,46.39
2019-02-28T19:49:41.457Z,46.31
2019-02-28T19:52:09.866Z,46.26
2019-02-28T19:54:38.227Z,46.16
2019-02-28T19:57:06.612Z,46.26
2019-02-28T19:59:35.064Z,46.21
2019-02-28T20:02:03.456Z,46.36
2019-02-28T20:04:32.399Z,46.29
2019-02-28T20:07:00.792Z,46.14
2019-02-28T20:09:29.329Z,46.21
2019-02-28T20:11:57.891Z,46.26
2019-02-28T20:14:26.354Z,46.30
2019-02-28T20:16:54.733Z,46.20
2019-02-28T20:19:23.118Z,46.31
2019-02-28T20:21:51.508Z,46.17
2019-02-28T20:24:19.897Z,46.18
2019-02-28T20:26:48.453Z,46.19
2019-02-28T20:29:16.849Z,46.14
2019-02-28T20:31:45.234Z,46.15
2019-02-28T20:34:13.617Z,46.04
2019-02-28T20:36:42.002Z,46.09
2019-02-28T20:39:11.914Z,45.98
2019-02-28T20:41:40.304Z,46.10
2019-02-28T20:44:08.686Z,46.09
2019-02-28T20:46:37.074Z,46.01
2019-02-28T20:49:05.463Z,46.04
2019-02-28T20:51:33.838Z,46.00
2019-02-28T20:54:02.886Z,46.02
2019-02-28T20:56:31.262Z,46.00
2019-02-28T20:58:59.650Z,46.07
2019-02-28T21:01:28.035Z,46.26
2019-02-28T21:03:56.771Z,46.20
2019-02-28T21:06:25.429Z,46.21
2019-02-28T21:08:54.090Z,46.07
2019-02-28T21:11:22.466Z,46.02
2019-02-28T21:13:50.916Z,45.83
2019-02-28T21:16:19.470Z,45.92
2019-02-28T21:18:47.855Z,45.95
2019-02-28T21:21:16.269Z,45.94
2019-02-28T21:23:44.650Z,45.91
2019-02-28T21:26:13.027Z,45.90
2019-02-28T21:28:41.411Z,45.85
2019-02-28T21:31:10.000Z,45.75
2019-02-28T21:33:38.390Z,45.87
2019-02-28T21:36:07.328Z,45.67
2019-02-28T21:38:35.846Z,45.80
2019-02-28T21:41:04.464Z,45.74
2019-02-28T21:43:33.435Z,45.83
2019-02-28T21:46:01.876Z,45.88
2019-02-28T21:48:30.336Z,45.81
2019-02-28T21:50:58.708Z,45.83
2019-02-28T21:53:27.123Z,45.86
2019-02-28T21:55:55.485Z,45.88
2019-02-28T21:58:23.901Z,45.82
2019-02-28T22:00:52.274Z,45.87
2019-02-28T22:03:20.984Z,45.89
2019-02-28T22:05:49.357Z,45.82
2019-02-28T22:08:17.919Z,45.92
2019-02-28T22:10:46.297Z,45.83
2019-02-28T22:13:15.436Z,45.87
2019-02-28T22:15:43.838Z,45.84
2019-02-28T22:18:12.279Z,45.89
2019-02-28T22:20:40.662Z,45.88
2019-02-28T22:23:09.370Z,45.82
2019-02-28T22:25:37.813Z,45.79
2019-02-28T22:28:06.326Z,45.81
2019-02-28T22:30:42.356Z,45.85
2019-02-28T22:33:21.782Z,45.82
2019-02-28T22:35:51.959Z,45.75
2019-02-28T22:38:20.331Z,45.78
2019-02-28T22:40:48.713Z,45.81
2019-02-28T22:43:17.086Z,45.76
2019-02-28T22:45:45.522Z,45.80
2019-02-28T22:48:13.895Z,45.85
2019-02-28T22:50:42.281Z,45.78
2019-02-28T22:53:10.758Z,45.81
2019-02-28T22:55:39.131Z,45.85
2019-02-28T22:58:09.342Z,45.77
2019-02-28T23:00:50.900Z,45.80
2019-02-28T23:03:19.632Z,45.82
2019-02-28T23:05:48.024Z,45.76
2019-02-28T23:08:16.406Z,45.83
2019-02-28T23:10:44.788Z,45.84
2019-02-28T23:13:13.160Z,45.86
2019-02-28T23:15:41.545Z,45.84
2019-02-28T23:18:09.926Z,45.80
2019-02-28T23:20:38.312Z,45.84
2019-02-28T23:23:06.759Z,45.78
2019-02-28T23:25:35.162Z,45.76
2019-02-28T23:28:12.123Z,45.74
2019-02-28T23:30:55.498Z,45.78
2019-02-28T23:33:23.873Z,45.81
2019-02-28T23:35:52.525Z,45.79
2019-02-28T23:38:20.925Z,45.85
2019-02-28T23:40:49.285Z,45.80
2019-02-28T23:43:17.657Z,45.84
2019-02-28T23:45:46.037Z,45.83
2019-02-28T23:48:14.419Z,45.78
2019-02-28T23:50:42.795Z,45.81
2019-02-28T23:53:11.184Z,45.77
2019-02-28T23:55:39.554Z,45.80
2019-02-28T23:58:07.944Z,45.81
